createdAt,value
2019-06-01T00:02:22.487Z,80.00
2019-06-01T00:04:52.904Z,80.50
2019-06-01T00:07:23.253Z,80.80
2019-06-01T00:09:53.567Z,80.40
2019-06-01T00:12:23.908Z,81.40
2019-06-01T00:14:54.186Z,80.80
2019-06-01T00:17:24.550Z,80.80
2019-06-01T00:19:55.827Z,81.50
2019-06-01T00:22:26.186Z,81.70
2019-06-01T00:24:56.492Z,81.80
2019-06-01T00:27:26.828Z,81.70
2019-06-01T00:29:57.146Z,81.70
2019-06-01T00:32:27.512Z,81.90
2019-06-01T00:34:57.785Z,83.10
2019-06-01T00:37:28.172Z,82.10
2019-06-01T00:39:58.473Z,82.40
2019-06-01T00:42:29.162Z,82.30
2019-06-01T00:44:59.453Z,82.60
2019-06-01T00:47:29.809Z,83.00
2019-06-01T00:50:00.091Z,83.60
2019-06-01T00:52:30.442Z,83.80
2019-06-01T00:55:00.743Z,84.20
2019-06-01T00:57:31.115Z,84.10
2019-06-01T01:00:01.410Z,84.40
2019-06-01T01:02:33.290Z,85.00
2019-06-01T01:05:18.043Z,84.90
2019-06-01T01:07:48.816Z,85.10
2019-06-01T01:10:19.401Z,84.80
2019-06-01T01:13:07.583Z,85.10
2019-06-01T01:15:37.999Z,85.60
2019-06-01T01:18:09.162Z,85.70
2019-06-01T01:20:39.642Z,86.30
2019-06-01T01:23:10.032Z,86.60
2019-06-01T01:25:40.345Z,86.30
2019-06-01T01:28:10.694Z,86.50
2019-06-01T01:30:42.010Z,87.40
2019-06-01T01:33:12.377Z,86.50
2019-06-01T01:35:42.678Z,86.70
2019-06-01T01:38:13.046Z,86.40
2019-06-01T01:40:43.346Z,86.80
2019-06-01T01:43:13.753Z,87.00
2019-06-01T01:45:44.052Z,86.90
2019-06-01T01:48:14.422Z,86.90
2019-06-01T01:50:44.715Z,87.20
2019-06-01T01:53:15.079Z,87.70
2019-06-01T01:55:45.398Z,87.50
2019-06-01T01:58:15.753Z,87.90
2019-06-01T02:00:47.895Z,88.20
2019-06-01T02:03:18.261Z,87.60
2019-06-01T02:05:48.556Z,87.50
2019-06-01T02:08:18.954Z,87.20
2019-06-01T02:10:49.254Z,86.80
2019-06-01T02:13:19.726Z,86.50
2019-06-01T02:15:50.028Z,86.20
2019-06-01T02:18:20.389Z,86.90
2019-06-01T02:20:50.698Z,86.90
2019-06-01T02:23:21.050Z,87.50
2019-06-01T02:25:52.773Z,86.40
2019-06-01T02:28:23.341Z,87.30
2019-06-01T02:30:53.958Z,88.70
2019-06-01T02:33:24.395Z,87.40
2019-06-01T02:35:56.186Z,87.20
2019-06-01T02:38:26.640Z,87.40
2019-06-01T02:40:57.442Z,87.80
2019-06-01T02:43:28.927Z,88.10
2019-06-01T02:46:00.543Z,88.70
2019-06-01T02:48:31.408Z,88.30
2019-06-01T02:51:02.022Z,88.10
2019-06-01T02:53:32.990Z,88.70
2019-06-01T02:56:04.302Z,88.30
2019-06-01T02:58:34.846Z,87.70
2019-06-01T03:01:10.994Z,86.70
2019-06-01T03:03:42.656Z,89.50
2019-06-01T03:06:14.930Z,88.50
2019-06-01T03:08:47.389Z,89.50
2019-06-01T03:11:19.748Z,89.40
2019-06-01T03:13:52.780Z,89.30
2019-06-01T03:16:24.683Z,89.70
2019-06-01T03:18:57.003Z,90.10
2019-06-01T03:21:30.226Z,90.30
2019-06-01T03:24:13.261Z,89.80
2019-06-01T03:26:46.612Z,89.70
2019-06-01T03:29:19.565Z,90.00
2019-06-01T03:31:49.893Z,89.70
2019-06-01T03:34:20.265Z,89.40
2019-06-01T03:36:50.650Z,88.70
2019-06-01T03:39:21.029Z,88.00
2019-06-01T03:41:52.130Z,87.80
2019-06-01T03:44:22.495Z,89.30
2019-06-01T03:46:52.804Z,89.70
2019-06-01T03:49:23.195Z,89.90
2019-06-01T03:51:53.617Z,89.60
2019-06-01T03:54:23.985Z,89.70
2019-06-01T03:56:54.290Z,90.00
2019-06-01T03:59:24.643Z,88.80
2019-06-01T04:01:55.976Z,89.40
2019-06-01T04:04:26.338Z,89.60
2019-06-01T04:06:57.631Z,89.10
2019-06-01T04:09:28.004Z,89.30
2019-06-01T04:11:58.302Z,88.20
2019-06-01T04:14:28.710Z,87.30
2019-06-01T04:16:59.021Z,86.60
2019-06-01T04:19:29.374Z,87.30
2019-06-01T04:21:59.667Z,87.80
2019-06-01T04:24:30.015Z,87.90
2019-06-01T04:27:00.324Z,88.10
2019-06-01T04:29:30.689Z,87.80
2019-06-01T04:32:02.396Z,88.30
2019-06-01T04:34:35.651Z,88.80
2019-06-01T04:37:05.180Z,89.10
2019-06-01T04:39:35.656Z,89.00
2019-06-01T04:42:05.966Z,88.30
2019-06-01T04:44:36.371Z,88.30
2019-06-01T04:47:06.779Z,87.70
2019-06-01T04:49:37.226Z,88.70
2019-06-01T04:52:08.749Z,89.10
2019-06-01T04:54:39.288Z,89.50
2019-06-01T04:57:10.932Z,89.80
2019-06-01T04:59:41.448Z,89.40
2019-06-01T05:02:13.053Z,89.20
2019-06-01T05:04:44.038Z,89.50
2019-06-01T05:07:15.510Z,89.20
2019-06-01T05:09:46.013Z,88.30
2019-06-01T05:12:16.306Z,87.90
2019-06-01T05:14:46.703Z,87.70
2019-06-01T05:17:17.002Z,86.80
2019-06-01T05:19:47.353Z,86.10
2019-06-01T05:22:17.661Z,86.00
2019-06-01T05:24:48.034Z,85.20
2019-06-01T05:27:18.322Z,85.50
2019-06-01T05:29:48.694Z,85.30
2019-06-01T05:32:18.978Z,84.50
2019-06-01T05:34:49.346Z,84.70
2019-06-01T05:37:19.659Z,85.40
2019-06-01T05:39:53.163Z,85.30
2019-06-01T05:42:23.478Z,86.10
2019-06-01T05:44:53.858Z,85.60
2019-06-01T05:47:24.165Z,85.00
2019-06-01T05:49:55.641Z,84.80
2019-06-01T05:52:25.953Z,85.40
2019-06-01T05:54:56.316Z,85.10
2019-06-01T05:57:26.641Z,84.80
2019-06-01T05:59:57.016Z,84.70
2019-06-01T06:02:28.316Z,84.40
2019-06-01T06:04:58.694Z,83.70
2019-06-01T06:07:28.980Z,83.60
2019-06-01T06:09:59.338Z,82.70
2019-06-01T06:12:29.635Z,82.50
2019-06-01T06:15:00.006Z,81.90
2019-06-01T06:17:30.309Z,81.00
2019-06-01T06:20:00.698Z,79.90
2019-06-01T06:22:32.212Z,80.30
2019-06-01T06:25:03.540Z,79.30
2019-06-01T06:27:33.826Z,79.30
2019-06-01T06:30:07.976Z,79.70
2019-06-01T06:32:39.292Z,79.30
2019-06-01T06:35:09.756Z,78.20
2019-06-01T06:37:42.326Z,77.70
2019-06-01T06:40:13.787Z,77.40
2019-06-01T06:42:44.151Z,75.90
2019-06-01T06:45:14.662Z,77.20
2019-06-01T06:47:44.926Z,76.10
2019-06-01T06:50:19.433Z,75.40
2019-06-01T06:52:49.748Z,75.30
2019-06-01T06:55:20.082Z,75.50
2019-06-01T06:57:50.697Z,75.40
2019-06-01T07:00:21.169Z,73.70
2019-06-01T07:02:52.024Z,74.10
2019-06-01T07:05:23.386Z,73.40
2019-06-01T07:07:54.025Z,72.80
2019-06-01T07:10:24.379Z,73.20
2019-06-01T07:12:54.669Z,73.40
2019-06-01T07:15:25.562Z,72.50
2019-06-01T07:17:57.053Z,73.00
2019-06-01T07:20:27.924Z,72.30
2019-06-01T07:22:58.267Z,72.70
2019-06-01T07:25:28.850Z,72.20
2019-06-01T07:27:59.250Z,70.40
2019-06-01T07:30:29.596Z,70.50
2019-06-01T07:32:59.902Z,69.00
2019-06-01T07:35:32.530Z,68.70
2019-06-01T07:38:02.971Z,69.60
2019-06-01T07:40:34.276Z,67.30
2019-06-01T07:43:04.571Z,68.20
2019-06-01T07:45:35.390Z,66.20
2019-06-01T07:48:05.752Z,65.40
2019-06-01T07:50:36.113Z,64.70
2019-06-01T07:53:06.402Z,65.30
2019-06-01T07:55:36.769Z,63.40
2019-06-01T07:58:08.057Z,63.20
2019-06-01T08:00:38.433Z,62.70
2019-06-01T08:03:08.718Z,64.30
2019-06-01T08:05:40.074Z,63.40
2019-06-01T08:08:10.376Z,63.00
2019-06-01T08:10:40.726Z,61.40
2019-06-01T08:13:11.006Z,60.70
2019-06-01T08:15:41.394Z,60.60
2019-06-01T08:18:11.774Z,59.50
2019-06-01T08:20:42.237Z,62.00
2019-06-01T08:23:12.546Z,60.10
2019-06-01T08:25:43.406Z,58.20
2019-06-01T08:28:13.698Z,57.90
2019-06-01T08:30:44.036Z,59.50
2019-06-01T08:33:14.303Z,58.80
2019-06-01T08:35:44.637Z,63.70
2019-06-01T08:38:15.869Z,62.60
2019-06-01T08:40:46.150Z,67.20
2019-06-01T08:43:18.008Z,62.00
2019-06-01T08:45:48.381Z,62.00
2019-06-01T08:48:18.726Z,60.50
2019-06-01T08:50:49.033Z,59.40
2019-06-01T08:53:19.365Z,61.90
2019-06-01T08:55:49.664Z,64.00
2019-06-01T08:58:20.024Z,64.30
2019-06-01T09:00:50.396Z,63.20
2019-06-01T09:03:20.713Z,60.90
2019-06-01T09:05:51.025Z,63.50
2019-06-01T09:08:23.774Z,63.30
2019-06-01T09:10:53.468Z,65.20
2019-06-01T09:13:25.012Z,67.40
2019-06-01T09:15:55.401Z,65.80
2019-06-01T09:18:25.780Z,65.20
2019-06-01T09:20:55.998Z,66.30
2019-06-01T09:23:27.506Z,65.90
2019-06-01T09:25:57.946Z,60.80
2019-06-01T09:28:31.988Z,58.30
2019-06-01T09:31:02.372Z,58.00
2019-06-01T09:33:32.740Z,57.00
2019-06-01T09:36:03.030Z,58.40
2019-06-01T09:38:33.773Z,56.30
2019-06-01T09:41:07.964Z,55.10
2019-06-01T09:43:38.201Z,56.50
2019-06-01T09:46:08.808Z,55.80
2019-06-01T09:48:39.145Z,57.00
2019-06-01T09:51:09.454Z,55.20
2019-06-01T09:53:39.740Z,54.20
2019-06-01T09:56:10.060Z,52.20
2019-06-01T09:58:40.474Z,51.50
2019-06-01T10:01:10.776Z,53.10
2019-06-01T10:03:41.097Z,53.70
2019-06-01T10:06:13.973Z,53.90
2019-06-01T10:08:43.240Z,52.80
2019-06-01T10:11:13.646Z,52.50
2019-06-01T10:13:43.899Z,51.80
2019-06-01T10:16:14.190Z,54.40
2019-06-01T10:18:44.558Z,48.60
2019-06-01T10:21:14.839Z,50.00
2019-06-01T10:23:49.260Z,49.90
2019-06-01T10:26:17.138Z,51.00
2019-06-01T10:28:47.406Z,51.40
2019-06-01T10:31:17.698Z,51.70
2019-06-01T10:33:51.304Z,52.60
2019-06-01T10:36:21.365Z,51.90
2019-06-01T10:38:51.916Z,49.30
2019-06-01T10:41:22.302Z,48.70
2019-06-01T10:43:52.586Z,46.40
2019-06-01T10:46:22.892Z,50.60
2019-06-01T10:48:53.272Z,49.80
2019-06-01T10:51:23.555Z,49.40
2019-06-01T10:53:53.846Z,48.30
2019-06-01T10:56:24.177Z,50.80
2019-06-01T10:59:00.356Z,50.10
2019-06-01T11:01:26.441Z,51.90
2019-06-01T11:03:56.794Z,50.90
2019-06-01T11:06:36.651Z,50.00
2019-06-01T11:08:59.007Z,48.60
2019-06-01T11:11:29.403Z,47.60
2019-06-01T11:13:59.664Z,49.60
2019-06-01T11:16:29.973Z,48.50
2019-06-01T11:19:00.326Z,49.20
2019-06-01T11:21:31.575Z,47.70
2019-06-01T11:24:01.878Z,47.80
2019-06-01T11:26:33.258Z,47.90
2019-06-01T11:29:03.736Z,47.00
2019-06-01T11:31:34.037Z,47.60
2019-06-01T11:34:04.601Z,48.40
2019-06-01T11:36:36.118Z,47.80
2019-06-01T11:39:07.521Z,48.90
2019-06-01T11:41:38.465Z,47.40
2019-06-01T11:44:08.851Z,48.60
2019-06-01T11:46:39.162Z,48.40
2019-06-01T11:49:10.030Z,47.40
2019-06-01T11:51:41.500Z,49.40
2019-06-01T11:54:11.865Z,49.10
2019-06-01T11:56:43.304Z,48.70
2019-06-01T11:59:13.728Z,50.40
2019-06-01T12:01:44.201Z,49.20
2019-06-01T12:04:14.628Z,50.10
2019-06-01T12:06:46.223Z,49.20
2019-06-01T12:09:16.726Z,48.70
2019-06-01T12:11:47.134Z,48.40
2019-06-01T12:14:17.449Z,49.50
2019-06-01T12:16:50.560Z,49.30
2019-06-01T12:19:20.904Z,50.20
2019-06-01T12:21:51.254Z,48.00
2019-06-01T12:24:25.453Z,48.30
2019-06-01T12:26:53.709Z,48.20
2019-06-01T12:29:24.003Z,48.50
2019-06-01T12:31:54.295Z,49.30
2019-06-01T12:34:24.640Z,48.40
2019-06-01T12:36:54.907Z,48.20
2019-06-01T12:39:25.161Z,48.10
2019-06-01T12:41:55.549Z,48.90
2019-06-01T12:44:27.242Z,50.00
2019-06-01T12:46:57.564Z,47.70
2019-06-01T12:49:27.856Z,47.80
2019-06-01T12:51:58.220Z,47.60
2019-06-01T12:54:29.580Z,47.80
2019-06-01T12:56:59.912Z,47.20
2019-06-01T12:59:30.222Z,47.50
2019-06-01T13:02:00.583Z,46.50
2019-06-01T13:04:30.834Z,46.90
2019-06-01T13:07:01.169Z,48.40
2019-06-01T13:09:31.495Z,48.70
2019-06-01T13:12:03.443Z,48.60
2019-06-01T13:14:33.744Z,47.30
2019-06-01T13:17:07.716Z,46.00
2019-06-01T13:19:36.665Z,45.80
2019-06-01T13:22:07.035Z,47.10
2019-06-01T13:24:37.333Z,48.20
2019-06-01T13:27:08.038Z,47.40
2019-06-01T13:29:38.317Z,47.50
2019-06-01T13:32:08.734Z,47.60
2019-06-01T13:34:42.613Z,48.20
2019-06-01T13:37:14.420Z,47.70
2019-06-01T13:39:45.513Z,47.40
2019-06-01T13:42:16.727Z,49.00
2019-06-01T13:44:47.701Z,47.70
2019-06-01T13:47:18.005Z,48.50
2019-06-01T13:49:48.724Z,47.20
2019-06-01T13:52:20.422Z,48.80
2019-06-01T13:54:50.684Z,47.30
2019-06-01T13:57:21.032Z,47.30
2019-06-01T13:59:51.624Z,48.10
2019-06-01T14:02:23.287Z,46.70
2019-06-01T14:04:54.206Z,47.00
2019-06-01T14:07:24.698Z,46.60
2019-06-01T14:09:55.390Z,46.30
2019-06-01T14:12:25.725Z,47.10
2019-06-01T14:14:56.005Z,46.40
2019-06-01T14:17:26.346Z,47.30
2019-06-01T14:19:56.608Z,48.00
2019-06-01T14:22:27.026Z,46.00
2019-06-01T14:25:11.467Z,46.40
2019-06-01T14:27:29.257Z,45.90
2019-06-01T14:29:59.525Z,46.30
2019-06-01T14:32:30.459Z,46.30
2019-06-01T14:35:00.755Z,46.10
2019-06-01T14:37:31.076Z,46.60
2019-06-01T14:40:01.391Z,46.10
2019-06-01T14:42:31.747Z,46.40
2019-06-01T14:45:02.047Z,48.10
2019-06-01T14:47:32.497Z,47.40
2019-06-01T14:50:03.102Z,48.20
2019-06-01T14:52:35.285Z,47.50
2019-06-01T14:55:07.315Z,46.20
2019-06-01T14:57:37.668Z,47.00
2019-06-01T15:00:09.622Z,47.70
2019-06-01T15:02:40.051Z,46.50
2019-06-01T15:05:10.648Z,47.80
2019-06-01T15:07:40.977Z,48.00
2019-06-01T15:10:11.941Z,47.30
2019-06-01T15:12:42.338Z,48.00
2019-06-01T15:15:12.917Z,47.80
2019-06-01T15:17:43.246Z,48.00
2019-06-01T15:20:14.838Z,48.60
2019-06-01T15:22:45.206Z,50.70
2019-06-01T15:25:18.042Z,48.50
2019-06-01T15:27:48.419Z,49.10
2019-06-01T15:30:18.906Z,49.70
2019-06-01T15:32:50.050Z,47.50
2019-06-01T15:35:20.460Z,46.80
2019-06-01T15:37:51.343Z,46.60
2019-06-01T15:40:22.813Z,46.00
2019-06-01T15:42:53.593Z,46.20
2019-06-01T15:45:24.024Z,46.50
2019-06-01T15:47:55.554Z,46.40
2019-06-01T15:50:25.957Z,46.80
2019-06-01T15:52:57.059Z,46.60
2019-06-01T15:55:27.595Z,46.00
2019-06-01T15:57:58.497Z,46.40
2019-06-01T16:00:28.906Z,45.70
2019-06-01T16:02:59.243Z,45.20
2019-06-01T16:05:29.546Z,45.60
2019-06-01T16:07:59.914Z,44.60
2019-06-01T16:10:30.199Z,45.90
2019-06-01T16:13:01.691Z,43.90
2019-06-01T16:15:31.945Z,46.60
2019-06-01T16:18:02.261Z,46.20
2019-06-01T16:20:33.521Z,45.40
2019-06-01T16:23:05.064Z,45.40
2019-06-01T16:25:36.666Z,45.30
2019-06-01T16:28:07.059Z,45.60
2019-06-01T16:30:37.328Z,45.00
2019-06-01T16:33:07.788Z,44.50
2019-06-01T16:35:38.108Z,44.60
2019-06-01T16:38:08.433Z,43.90
2019-06-01T16:40:38.731Z,43.20
2019-06-01T16:43:09.121Z,44.50
2019-06-01T16:45:39.417Z,44.70
2019-06-01T16:48:09.783Z,46.40
2019-06-01T16:50:40.041Z,45.60
2019-06-01T16:53:10.369Z,45.50
2019-06-01T16:55:40.632Z,44.90
2019-06-01T16:58:11.012Z,44.70
2019-06-01T17:00:41.411Z,46.00
2019-06-01T17:03:11.763Z,45.60
2019-06-01T17:05:42.050Z,46.50
2019-06-01T17:08:15.419Z,47.10
2019-06-01T17:10:45.352Z,47.10
2019-06-01T17:13:15.744Z,46.20
2019-06-01T17:15:46.014Z,46.60
2019-06-01T17:18:16.336Z,48.00
2019-06-01T17:20:49.287Z,47.50
2019-06-01T17:23:26.889Z,47.80
2019-06-01T17:25:50.601Z,49.00
2019-06-01T17:28:20.930Z,49.10
2019-06-01T17:30:51.438Z,47.50
2019-06-01T17:33:22.136Z,48.00
2019-06-01T17:35:52.726Z,48.40
2019-06-01T17:38:23.056Z,48.70
2019-06-01T17:40:53.385Z,49.00
2019-06-01T17:43:23.781Z,49.30
2019-06-01T17:45:54.081Z,49.40
2019-06-01T17:48:26.776Z,48.50
2019-06-01T17:50:56.358Z,48.80
2019-06-01T17:53:26.680Z,49.50
2019-06-01T17:55:56.982Z,49.60
2019-06-01T17:58:27.281Z,50.40
2019-06-01T18:00:57.545Z,51.00
2019-06-01T18:03:27.872Z,51.30
2019-06-01T18:05:58.171Z,51.50
2019-06-01T18:08:28.501Z,51.70
2019-06-01T18:10:58.795Z,52.00
2019-06-01T18:13:29.210Z,52.20
2019-06-01T18:15:59.502Z,52.40
2019-06-01T18:18:29.837Z,52.20
2019-06-01T18:21:00.098Z,52.80
2019-06-01T18:23:30.441Z,53.20
2019-06-01T18:26:00.738Z,53.30
2019-06-01T18:28:31.065Z,54.20
2019-06-01T18:31:02.582Z,54.00
2019-06-01T18:33:35.991Z,54.00
2019-06-01T18:36:07.449Z,54.20
2019-06-01T18:38:37.991Z,54.50
2019-06-01T18:41:14.538Z,54.80
2019-06-01T18:43:40.313Z,55.10
2019-06-01T18:46:10.611Z,55.30
2019-06-01T18:48:41.077Z,55.50
2019-06-01T18:51:12.321Z,55.90
2019-06-01T18:53:42.784Z,56.10
2019-06-01T18:56:14.288Z,55.90
2019-06-01T18:58:44.753Z,56.40
2019-06-01T19:01:15.246Z,56.30
2019-06-01T19:03:46.714Z,56.80
2019-06-01T19:06:16.982Z,56.90
2019-06-01T19:08:47.314Z,57.40
2019-06-01T19:11:30.512Z,58.20
2019-06-01T19:13:49.549Z,59.30
2019-06-01T19:16:19.842Z,58.90
2019-06-01T19:18:50.207Z,58.40
2019-06-01T19:21:20.498Z,57.70
2019-06-01T19:23:50.825Z,58.00
2019-06-01T19:26:22.222Z,57.10
2019-06-01T19:28:52.979Z,56.90
2019-06-01T19:31:23.271Z,57.40
2019-06-01T19:33:53.623Z,57.40
2019-06-01T19:36:24.022Z,57.60
2019-06-01T19:38:55.321Z,58.40
2019-06-01T19:41:25.584Z,58.80
2019-06-01T19:43:55.928Z,58.90
2019-06-01T19:46:26.234Z,58.30
2019-06-01T19:48:56.582Z,58.40
2019-06-01T19:51:26.893Z,57.60
2019-06-01T19:53:57.247Z,58.80
2019-06-01T19:56:27.515Z,58.00
2019-06-01T19:58:57.854Z,57.60
2019-06-01T20:01:28.156Z,57.70
2019-06-01T20:03:58.484Z,57.50
2019-06-01T20:06:28.769Z,57.60
2019-06-01T20:09:00.143Z,57.50
2019-06-01T20:11:30.447Z,57.80
2019-06-01T20:14:00.808Z,57.70
2019-06-01T20:16:31.198Z,57.60
2019-06-01T20:19:01.564Z,57.50
2019-06-01T20:21:31.846Z,57.50
2019-06-01T20:24:02.219Z,58.10
2019-06-01T20:26:42.134Z,58.20
2019-06-01T20:29:04.960Z,58.50
2019-06-01T20:31:35.258Z,58.90
2019-06-01T20:34:05.623Z,59.30
2019-06-01T20:36:35.910Z,59.90
2019-06-01T20:39:08.136Z,59.90
2019-06-01T20:41:38.401Z,59.90
2019-06-01T20:44:08.777Z,60.10
2019-06-01T20:46:39.074Z,60.90
2019-06-01T20:49:09.412Z,60.80
2019-06-01T20:51:39.699Z,60.90
2019-06-01T20:54:10.032Z,62.00
2019-06-01T20:56:40.294Z,60.80
2019-06-01T20:59:10.613Z,60.90
2019-06-01T21:01:40.907Z,61.60
2019-06-01T21:04:11.229Z,61.80
2019-06-01T21:06:41.505Z,62.40
2019-06-01T21:09:11.829Z,62.30
2019-06-01T21:11:42.085Z,62.20
2019-06-01T21:14:12.429Z,62.80
2019-06-01T21:16:42.698Z,63.30
2019-06-01T21:19:14.106Z,63.30
2019-06-01T21:21:44.416Z,64.30
2019-06-01T21:24:16.710Z,64.80
2019-06-01T21:26:47.217Z,66.20
2019-06-01T21:29:18.561Z,66.40
2019-06-01T21:31:49.154Z,66.70
2019-06-01T21:34:20.979Z,66.80
2019-06-01T21:36:51.613Z,67.10
2019-06-01T21:39:22.069Z,67.00
2019-06-01T21:41:52.333Z,66.70
2019-06-01T21:44:23.717Z,67.70
2019-06-01T21:46:54.088Z,68.50
2019-06-01T21:49:24.400Z,68.70
2019-06-01T21:51:54.704Z,67.30
2019-06-01T21:54:26.326Z,68.10
2019-06-01T21:56:56.802Z,67.80
2019-06-01T21:59:28.677Z,68.20
2019-06-01T22:01:59.033Z,70.30
2019-06-01T22:04:29.394Z,69.40
2019-06-01T22:06:59.690Z,69.70
2019-06-01T22:09:30.112Z,69.40
2019-06-01T22:12:00.408Z,69.90
2019-06-01T22:14:30.729Z,70.30
2019-06-01T22:17:01.002Z,69.70
2019-06-01T22:19:32.362Z,69.50
2019-06-01T22:22:02.625Z,69.30
2019-06-01T22:24:32.954Z,70.10
2019-06-01T22:27:03.237Z,69.70
2019-06-01T22:29:33.594Z,69.50
2019-06-01T22:32:03.861Z,69.60
2019-06-01T22:34:34.226Z,69.60
2019-06-01T22:37:04.584Z,70.30
2019-06-01T22:39:34.948Z,71.00
2019-06-01T22:42:05.201Z,71.20
2019-06-01T22:44:35.945Z,71.40
2019-06-01T22:47:06.252Z,71.00
2019-06-01T22:49:36.629Z,71.20
2019-06-01T22:52:06.918Z,71.60
2019-06-01T22:54:37.289Z,72.50
2019-06-01T22:57:07.589Z,72.60
2019-06-01T22:59:39.012Z,72.00
2019-06-01T23:02:09.325Z,72.20
2019-06-01T23:04:39.786Z,71.40
2019-06-01T23:07:10.094Z,71.40
2019-06-01T23:09:40.477Z,71.50
2019-06-01T23:12:10.777Z,71.50
2019-06-01T23:14:41.149Z,71.00
2019-06-01T23:17:11.459Z,70.80
2019-06-01T23:19:41.825Z,70.70
2019-06-01T23:22:12.110Z,70.80
2019-06-01T23:24:42.476Z,70.50
2019-06-01T23:27:12.785Z,70.80
2019-06-01T23:29:43.245Z,71.20
2019-06-01T23:32:13.538Z,72.40
2019-06-01T23:34:43.886Z,72.70
2019-06-01T23:37:14.199Z,72.90
2019-06-01T23:39:44.736Z,72.20
2019-06-01T23:42:15.080Z,72.00
2019-06-01T23:44:45.412Z,71.80
2019-06-01T23:47:15.683Z,72.20
2019-06-01T23:49:46.029Z,72.50
2019-06-01T23:52:16.337Z,72.50
2019-06-01T23:54:46.678Z,72.30
2019-06-01T23:57:16.933Z,72.30
2019-06-01T23:59:47.290Z,72.40
